KMCO/MCO METAR and TAF weather

Enter ICAO airport designator
Station Type Date Time Source
KMCO METAR 2021/07/27 19:53 UTC NOAA

KMCO 271953Z 09003KT 10SM TS FEW045CB SCT065 BKN080 BKN250 29/24 A3000 RMK AO2 LTG DSNT ALQDS RAE1858 TSE19E23B30 SLP158 FRQ LTGICCG E-SE TS E-SE MOV NE VCSH E-SE P0000 T02940244


Station Type Date Time Source
KMCO Decoded METAR 2021/07/27 19:53 UTC NOAA

ORLANDO INTERNATIONAL AIRPORT , FL, United States (KMCO) 28-25N 81-20W 29M
Jul 27, 2021 - 03:53 PM EDT / 2021.07.27 1953 UTC
Wind: from the E (090 degrees) at 3 MPH (3 KT):0
Visibility: 10 mile(s):0
Sky conditions: mostly cloudy
Weather: thunder; Cumulonimbus clouds, lightning observed
Precipitation last hour: A trace
Temperature: 84.9 F (29.4 C)
Dew Point: 75.9 F (24.4 C)
Relative Humidity: 74%
Pressure (altimeter): 30 in. Hg (1015 hPa)
ob: KMCO 271953Z 09003KT 10SM TS FEW045CB SCT065 BKN080 BKN250 29/24 A3000 RMK AO2 LTG DSNT ALQDS RAE1858 TSE19E23B30 SLP158 FRQ LTGICCG E-SE TS E-SE MOV NE VCSH E-SE P0000 T02940244
cycle: 20

Station Type Date Time Source
KMCO TAF 2021/07/27 18:42 UTC NOAA

TAF KMCO 271740Z 2718/2824 VRB05KT P6SM VCTS BKN035CB BKN050 BKN250
TEMPO 2718/2721 VRB12G22KT 3SM TSRA BKN030CB
FM280000 21004KT P6SM FEW050 SCT080 BKN250
FM281500 26007KT P6SM VCSH SCT035 SCT250
FM281800 24008KT P6SM VCTS SCT050CB SCT150

Example: see airport list